Skip Navigation Links Skip Navigation Links

Current Weather

Sdr Stroemfjord, Greenland

For information only: do not use for flight planning or navigation.
Latest weather
Observation time Wednesday, October 27, 2021 2:50 AM ADT
Local time Wednesday, October 27, 2021 3:49 AM ADT
Flight conditions Conditions unknown
Winds
Wind direction Northeast (50°)
Wind speed 9 mph
Sky condition
Ceiling 19,000 ft. broken clouds
Cloud layer broken clouds 19,000 ft.
Temperature -2°F
Dewpoint -6°F
Altimeter 29.80 in.Hg
Derived measurements
Relative humidity 84%
Wind chill -18°F
Density altitude -3999 ft.
Remarks
Fully automated report.
METAR BGSF 270550Z AUTO 05008KT 9999NDV BKN190/// M19/M21 Q1009

Settings

Location code

InnerDrive.Weather 4.0.6770.0 Release CLR 4.0.30319.42000
Copyright ©2018 Inner Drive Technology. All rights reserved. Portions Copyright ©1986-2018 David Braverman.

Find weather

Site navigation


Skip Navigation Links

Place info

Page info

PayPal - The safer, easier way to pay online!

Return home.

Copyright ©2021 Inner Drive Technology. Purveyors of fine, hand-crafted computer software. Page printed 2021-10-27T06:49:53 UTC.